createdAt,value
2023-03-24T00:00:36.439Z,101148.06
2023-03-24T00:03:04.023Z,101146.66
2023-03-24T00:05:31.598Z,101140.50
2023-03-24T00:08:03.140Z,101146.94
2023-03-24T00:10:34.771Z,101149.75
2023-03-24T00:13:02.684Z,101137.38
2023-03-24T00:15:30.643Z,101131.34
2023-03-24T00:17:58.313Z,101138.66
2023-03-24T00:20:26.459Z,101141.59
2023-03-24T00:22:58.815Z,101144.56
2023-03-24T00:25:36.528Z,101137.69
2023-03-24T00:28:07.510Z,101145.09
2023-03-24T00:30:35.641Z,101142.41
2023-03-24T00:33:02.788Z,101137.13
2023-03-24T00:35:29.933Z,101148.00
2023-03-24T00:37:57.360Z,101143.78
2023-03-24T00:40:25.110Z,101144.88
2023-03-24T00:42:52.994Z,101148.59
2023-03-24T00:45:25.287Z,101145.34
2023-03-24T00:47:58.383Z,101159.00
2023-03-24T00:50:28.735Z,101155.66
2023-03-24T00:52:58.415Z,101158.47
2023-03-24T00:55:28.784Z,101158.53
2023-03-24T00:57:56.121Z,101156.84
2023-03-24T01:00:27.014Z,101156.94
2023-03-24T01:02:57.779Z,101159.84
2023-03-24T01:05:30.913Z,101166.16
2023-03-24T01:08:03.764Z,101151.97
2023-03-24T01:10:42.669Z,101152.06
2023-03-24T01:13:10.491Z,101145.97
2023-03-24T01:15:38.428Z,101137.97
2023-03-24T01:18:06.565Z,101140.78
2023-03-24T01:20:34.024Z,101135.81
2023-03-24T01:23:05.172Z,101135.13
2023-03-24T01:25:34.041Z,101129.00
2023-03-24T01:28:01.651Z,101130.03
2023-03-24T01:30:30.484Z,101129.31
2023-03-24T01:32:58.029Z,101126.81
2023-03-24T01:35:28.537Z,101120.69
2023-03-24T01:37:57.332Z,101115.50
2023-03-24T01:40:31.758Z,101117.44
2023-03-24T01:42:59.759Z,101112.16
2023-03-24T01:45:39.336Z,101116.75
2023-03-24T01:48:34.589Z,101115.91
2023-03-24T01:51:10.836Z,101116.09
2023-03-24T01:53:46.276Z,101121.78
2023-03-24T01:56:14.081Z,101129.19
2023-03-24T01:58:52.557Z,101117.59
2023-03-24T02:01:38.384Z,101119.88
2023-03-24T02:04:39.106Z,101119.81
2023-03-24T02:07:40.249Z,101120.09
2023-03-24T02:10:13.422Z,101122.88
2023-03-24T02:12:43.354Z,101115.03
2023-03-24T02:15:14.342Z,101109.84
2023-03-24T02:18:02.635Z,101103.81
2023-03-24T02:21:12.198Z,101107.56
2023-03-24T02:24:27.109Z,101094.22
2023-03-24T02:27:35.380Z,101091.56
2023-03-24T02:30:31.554Z,101096.06
2023-03-24T02:33:41.762Z,101091.97
2023-03-24T02:37:08.736Z,101086.88
2023-03-24T02:40:12.658Z,101087.94
2023-03-24T02:43:26.945Z,101083.66
2023-03-24T02:46:13.931Z,101087.06
2023-03-24T02:49:01.819Z,101074.72
2023-03-24T02:51:40.701Z,101081.03
2023-03-24T02:54:21.363Z,101076.84
2023-03-24T02:56:57.041Z,101074.34
2023-03-24T02:59:51.107Z,101079.25
2023-03-24T03:03:04.492Z,101078.78
2023-03-24T03:05:37.865Z,101083.34
2023-03-24T03:08:09.607Z,101081.66
2023-03-24T03:10:41.750Z,101077.13
2023-03-24T03:13:20.051Z,101075.31
2023-03-24T03:15:54.620Z,101069.94
2023-03-24T03:18:50.259Z,101052.34
2023-03-24T03:21:26.424Z,101044.31
2023-03-24T03:24:02.454Z,101038.16
2023-03-24T03:26:33.288Z,101040.28
2023-03-24T03:29:17.136Z,101046.03
2023-03-24T03:31:59.291Z,101049.88
2023-03-24T03:34:45.983Z,101045.63
2023-03-24T03:37:51.300Z,101043.03
2023-03-24T03:40:25.546Z,101040.44
2023-03-24T03:42:58.685Z,101037.00
2023-03-24T03:45:25.918Z,101039.69
2023-03-24T03:47:53.408Z,101044.28
2023-03-24T03:50:21.905Z,101051.63
2023-03-24T03:52:50.088Z,101050.84
2023-03-24T03:55:17.548Z,101056.31
2023-03-24T03:57:45.627Z,101045.59
2023-03-24T04:00:23.607Z,101041.97
2023-03-24T04:03:25.926Z,101037.66
2023-03-24T04:06:13.860Z,101037.66
2023-03-24T04:08:56.842Z,101042.25
2023-03-24T04:11:49.837Z,101038.81
2023-03-24T04:14:47.546Z,101030.94
2023-03-24T04:18:38.858Z,101040.25
2023-03-24T04:21:34.113Z,101030.84
2023-03-24T04:24:40.443Z,101043.56
2023-03-24T04:27:22.217Z,101035.72
2023-03-24T04:30:25.161Z,101031.22
2023-03-24T04:32:58.754Z,101035.63
2023-03-24T04:35:42.972Z,101041.91
2023-03-24T04:41:22.785Z,101054.56
2023-03-24T04:44:01.643Z,101059.91
2023-03-24T04:46:30.264Z,101060.00
2023-03-24T04:49:09.235Z,101058.19
2023-03-24T04:51:39.140Z,101060.09
2023-03-24T04:54:21.354Z,101072.63
2023-03-24T04:56:57.000Z,101063.81
2023-03-24T04:59:40.740Z,101058.75
2023-03-24T05:02:12.855Z,101064.09
2023-03-24T05:04:57.853Z,101068.78
2023-03-24T05:07:33.861Z,101063.84
2023-03-24T05:10:04.728Z,101063.28
2023-03-24T05:12:36.529Z,101068.81
2023-03-24T05:15:21.867Z,101069.75
2023-03-24T05:17:54.724Z,101072.53
2023-03-24T05:20:26.501Z,101069.00
2023-03-24T05:22:56.391Z,101062.84
2023-03-24T05:25:25.525Z,101060.28
2023-03-24T05:27:52.926Z,101074.53
2023-03-24T05:30:24.103Z,101057.63
2023-03-24T05:32:55.800Z,101054.06
2023-03-24T05:35:24.810Z,101067.47
2023-03-24T05:37:52.170Z,101068.31
2023-03-24T05:40:20.174Z,101064.78
2023-03-24T05:42:55.152Z,101072.03
2023-03-24T05:45:25.961Z,101068.38
2023-03-24T05:47:53.953Z,101070.13
2023-03-24T05:50:29.490Z,101063.72
2023-03-24T05:52:57.263Z,101071.69
2023-03-24T05:55:40.240Z,101080.75
2023-03-24T05:58:25.283Z,101087.91
2023-03-24T06:00:57.203Z,101084.09
2023-03-24T06:03:34.931Z,101090.22
2023-03-24T06:06:16.845Z,101089.28
2023-03-24T06:08:45.216Z,101086.31
2023-03-24T06:11:14.512Z,101086.13
2023-03-24T06:14:00.462Z,101077.00
2023-03-24T06:16:40.910Z,101084.66
2023-03-24T06:19:09.457Z,101095.09
2023-03-24T06:22:03.049Z,101100.94
2023-03-24T06:24:35.803Z,101096.19
2023-03-24T06:27:08.903Z,101095.91
2023-03-24T06:29:36.864Z,101103.75
2023-03-24T06:32:05.716Z,101107.09
2023-03-24T06:34:40.569Z,101104.13
2023-03-24T06:37:28.174Z,101102.16
2023-03-24T06:39:56.006Z,101102.84
2023-03-24T06:42:27.341Z,101105.41
2023-03-24T06:44:55.021Z,101105.22
2023-03-24T06:47:23.017Z,101090.78
2023-03-24T06:49:51.083Z,101081.50
2023-03-24T06:52:18.095Z,101094.66
2023-03-24T06:54:45.109Z,101093.50
2023-03-24T06:57:13.051Z,101092.44
2023-03-24T06:59:59.398Z,101094.84
2023-03-24T07:02:35.936Z,101107.13
2023-03-24T07:05:11.394Z,101101.38
2023-03-24T07:10:31.517Z,101099.25
2023-03-24T07:12:59.753Z,101110.84
2023-03-24T07:15:27.845Z,101096.38
2023-03-24T07:17:56.044Z,101098.00
2023-03-24T07:20:52.485Z,101104.03
2023-03-24T07:23:21.905Z,101110.19
2023-03-24T07:25:53.688Z,101110.84
2023-03-24T07:28:43.329Z,101112.25
2023-03-24T07:31:12.337Z,101111.22
2023-03-24T07:33:41.457Z,101106.50
2023-03-24T07:36:09.636Z,101122.34
2023-03-24T07:38:39.187Z,101130.06
2023-03-24T07:41:11.078Z,101140.59
2023-03-24T07:43:42.219Z,101130.53
2023-03-24T07:46:19.891Z,101126.81
2023-03-24T07:48:47.603Z,101141.66
2023-03-24T07:51:18.063Z,101134.28
2023-03-24T07:54:14.666Z,101130.44
2023-03-24T07:56:46.375Z,101123.88
2023-03-24T07:59:13.756Z,101129.84
2023-03-24T08:01:52.308Z,101127.81
2023-03-24T08:04:33.528Z,101127.50
2023-03-24T08:07:19.924Z,101128.94
2023-03-24T08:09:46.980Z,101133.03
2023-03-24T08:12:20.391Z,101131.88
2023-03-24T08:14:50.222Z,101126.41
2023-03-24T08:17:17.211Z,101109.16
2023-03-24T08:19:58.517Z,101111.66
2023-03-24T08:22:28.174Z,101114.88
2023-03-24T08:24:55.172Z,101117.28
2023-03-24T08:27:22.173Z,101124.16
2023-03-24T08:29:49.259Z,101127.28
2023-03-24T08:32:16.151Z,101116.97
2023-03-24T08:34:43.122Z,101121.09
2023-03-24T08:37:11.950Z,101129.69
2023-03-24T08:39:38.979Z,101127.75
2023-03-24T08:42:06.667Z,101127.34
2023-03-24T08:44:33.915Z,101133.28
2023-03-24T08:47:01.603Z,101130.34
2023-03-24T08:49:28.796Z,101129.22
2023-03-24T08:51:55.965Z,101138.13
2023-03-24T08:54:24.806Z,101132.84
2023-03-24T08:56:52.398Z,101130.28
2023-03-24T08:59:19.717Z,101123.84
2023-03-24T09:01:47.512Z,101124.34
2023-03-24T09:04:14.876Z,101125.00
2023-03-24T09:06:41.942Z,101134.47
2023-03-24T09:09:09.059Z,101136.84
2023-03-24T09:11:38.471Z,101135.66
2023-03-24T09:14:05.745Z,101148.03
2023-03-24T09:16:33.270Z,101131.69
2023-03-24T09:19:00.387Z,101134.47
2023-03-24T09:21:27.508Z,101139.09
2023-03-24T09:23:54.513Z,101139.88
2023-03-24T09:26:23.216Z,101121.59
2023-03-24T09:28:50.876Z,101119.00
2023-03-24T09:31:18.039Z,101119.53
2023-03-24T09:33:45.851Z,101117.94
2023-03-24T09:36:13.952Z,101119.22
2023-03-24T09:38:41.222Z,101118.78
2023-03-24T09:41:22.411Z,101107.38
2023-03-24T09:44:05.065Z,101110.56
2023-03-24T09:46:39.542Z,101108.47
2023-03-24T09:49:06.623Z,101109.28
2023-03-24T09:51:41.073Z,101101.88
2023-03-24T09:54:08.194Z,101105.69
2023-03-24T09:56:38.914Z,101091.31
2023-03-24T09:59:07.366Z,101097.94
2023-03-24T10:01:36.426Z,101096.28
2023-03-24T10:04:05.484Z,101096.38
2023-03-24T10:06:40.189Z,101102.31
2023-03-24T10:09:28.948Z,101102.53
2023-03-24T10:12:23.313Z,101103.53
2023-03-24T10:15:13.133Z,101109.88
2023-03-24T10:17:55.341Z,101111.75
2023-03-24T10:20:35.285Z,101105.41
2023-03-24T10:23:17.814Z,101098.44
2023-03-24T10:26:05.859Z,101086.69
2023-03-24T10:28:55.434Z,101085.09
2023-03-24T10:31:30.789Z,101083.03
2023-03-24T10:33:58.702Z,101078.63
2023-03-24T10:36:29.365Z,101073.72
2023-03-24T10:38:58.734Z,101078.13
2023-03-24T10:41:29.515Z,101079.09
2023-03-24T10:44:00.819Z,101073.47
2023-03-24T10:46:31.509Z,101077.25
2023-03-24T10:49:28.457Z,101063.88
2023-03-24T10:52:04.064Z,101068.31
2023-03-24T10:54:32.117Z,101059.59
2023-03-24T10:57:00.270Z,101070.41
2023-03-24T10:59:29.814Z,101065.13
2023-03-24T11:02:21.386Z,101058.31
2023-03-24T11:05:12.474Z,101064.81
2023-03-24T11:07:43.274Z,101067.22
2023-03-24T11:10:10.233Z,101062.16
2023-03-24T11:12:43.968Z,101056.16
2023-03-24T11:15:31.925Z,101051.09
2023-03-24T11:18:12.749Z,101047.84
2023-03-24T11:21:04.412Z,101046.72
2023-03-24T11:23:35.370Z,101051.72
2023-03-24T11:26:30.676Z,101048.63
2023-03-24T11:29:02.779Z,101048.38
2023-03-24T11:31:38.694Z,101040.59
2023-03-24T11:34:26.269Z,101031.28
2023-03-24T11:37:01.485Z,101029.09
2023-03-24T11:39:32.780Z,101036.31
2023-03-24T11:42:16.396Z,101030.00
2023-03-24T11:44:52.958Z,101030.22
2023-03-24T11:47:29.315Z,101020.09
2023-03-24T11:50:03.987Z,101018.91
2023-03-24T11:52:40.059Z,101004.25
2023-03-24T11:55:56.462Z,101011.84
2023-03-24T11:58:27.895Z,101012.03
2023-03-24T12:01:02.049Z,100995.53
2023-03-24T12:03:51.769Z,100989.56
2023-03-24T12:06:31.070Z,100982.16
2023-03-24T12:09:46.663Z,100969.63
2023-03-24T12:12:33.593Z,100988.00
2023-03-24T12:15:26.633Z,100977.22
2023-03-24T12:18:08.807Z,100970.66
2023-03-24T12:21:15.160Z,100953.69
2023-03-24T12:24:26.477Z,100948.84
2023-03-24T12:27:00.362Z,100955.28
2023-03-24T12:29:58.438Z,100955.00
2023-03-24T12:32:25.614Z,100944.16
2023-03-24T12:35:14.603Z,100944.44
2023-03-24T12:38:15.501Z,100935.84
2023-03-24T12:41:03.783Z,100926.31
2023-03-24T12:43:41.233Z,100923.44
2023-03-24T12:46:34.078Z,100924.28
2023-03-24T12:49:15.220Z,100925.56
2023-03-24T12:52:17.945Z,100929.41
2023-03-24T12:55:14.312Z,100922.72
2023-03-24T12:57:49.131Z,100920.03
2023-03-24T13:00:32.613Z,100919.59
2023-03-24T13:03:06.051Z,100908.28
2023-03-24T13:05:50.593Z,100899.31
2023-03-24T13:08:29.639Z,100895.03
2023-03-24T13:11:06.883Z,100893.81
2023-03-24T13:13:41.754Z,100887.69
2023-03-24T13:16:17.180Z,100886.53
2023-03-24T13:18:48.585Z,100888.66
2023-03-24T13:21:18.915Z,100884.19
2023-03-24T13:24:09.988Z,100870.44
2023-03-24T13:26:57.125Z,100871.69
2023-03-24T13:29:49.078Z,100869.16
2023-03-24T13:32:25.844Z,100860.25
2023-03-24T13:34:59.288Z,100845.59
2023-03-24T13:37:57.449Z,100855.13
2023-03-24T13:40:28.606Z,100842.47
2023-03-24T13:42:58.729Z,100835.66
2023-03-24T13:45:42.347Z,100833.47
2023-03-24T13:48:09.408Z,100825.88
2023-03-24T13:51:01.944Z,100810.81
2023-03-24T13:54:00.972Z,100814.06
2023-03-24T13:56:42.494Z,100814.84
2023-03-24T13:59:28.896Z,100802.72
2023-03-24T14:02:43.848Z,100792.66
2023-03-24T14:05:23.061Z,100794.28
2023-03-24T14:08:09.952Z,100794.13
2023-03-24T14:10:43.144Z,100789.31
2023-03-24T14:13:13.620Z,100786.22
2023-03-24T14:15:44.631Z,100781.34
2023-03-24T14:18:23.947Z,100774.69
2023-03-24T14:20:56.798Z,100780.34
2023-03-24T14:23:49.467Z,100780.56
2023-03-24T14:26:36.767Z,100783.81
2023-03-24T14:29:03.987Z,100784.81
2023-03-24T14:31:36.223Z,100783.31
2023-03-24T14:34:15.037Z,100780.38
2023-03-24T14:36:45.042Z,100773.44
2023-03-24T14:39:18.063Z,100775.66
2023-03-24T14:41:51.817Z,100787.69
2023-03-24T14:47:23.873Z,100770.53
2023-03-24T14:49:56.033Z,100770.97
2023-03-24T14:52:40.713Z,100778.09
2023-03-24T14:55:12.971Z,100774.41
2023-03-24T14:57:53.194Z,100774.09
2023-03-24T15:00:26.125Z,100770.84
2023-03-24T15:03:01.837Z,100774.00
2023-03-24T15:05:31.676Z,100769.41
2023-03-24T15:08:02.380Z,100768.75
2023-03-24T15:10:51.359Z,100771.06
2023-03-24T15:13:40.789Z,100779.63
2023-03-24T15:16:11.352Z,100777.16
2023-03-24T15:19:00.581Z,100777.25
2023-03-24T15:21:39.960Z,100775.59
2023-03-24T15:24:22.862Z,100774.97
2023-03-24T15:27:09.416Z,100773.56
2023-03-24T15:29:41.997Z,100759.06
2023-03-24T15:32:21.971Z,100757.59
2023-03-24T15:34:56.444Z,100761.59
2023-03-24T15:37:40.606Z,100773.22
2023-03-24T15:40:30.439Z,100777.09
2023-03-24T15:43:01.421Z,100774.69
2023-03-24T15:45:32.231Z,100789.25
2023-03-24T15:48:17.074Z,100781.91
2023-03-24T15:51:09.302Z,100788.59
2023-03-24T15:53:49.363Z,100787.75
2023-03-24T15:56:36.473Z,100789.06
2023-03-24T15:59:03.700Z,100777.38
2023-03-24T16:01:38.347Z,100785.66
2023-03-24T16:04:13.543Z,100789.06
2023-03-24T16:06:55.517Z,100783.88
2023-03-24T16:09:27.461Z,100781.84
2023-03-24T16:11:55.410Z,100780.88
2023-03-24T16:14:25.194Z,100779.63
2023-03-24T16:16:58.512Z,100786.97
2023-03-24T16:19:26.258Z,100783.84
2023-03-24T16:21:54.982Z,100800.25
2023-03-24T16:24:22.821Z,100791.84
2023-03-24T16:26:50.404Z,100800.53
2023-03-24T16:29:21.951Z,100810.50
2023-03-24T16:31:53.198Z,100801.97
2023-03-24T16:34:22.296Z,100808.56
2023-03-24T16:36:52.456Z,100807.72
2023-03-24T16:39:22.971Z,100817.13
2023-03-24T16:41:50.270Z,100809.59
2023-03-24T16:44:17.440Z,100811.16
2023-03-24T16:46:46.997Z,100818.28
2023-03-24T16:49:17.443Z,100813.16
2023-03-24T16:51:45.972Z,100808.59
2023-03-24T16:54:14.349Z,100808.59
2023-03-24T16:56:41.584Z,100813.16
2023-03-24T16:59:09.431Z,100806.06
2023-03-24T17:01:40.346Z,100800.78
2023-03-24T17:04:13.328Z,100792.25
2023-03-24T17:06:44.869Z,100791.09
2023-03-24T17:09:12.733Z,100792.94
2023-03-24T17:11:43.628Z,100782.84
2023-03-24T17:14:14.220Z,100781.53
2023-03-24T17:16:44.030Z,100787.50
2023-03-24T17:19:14.281Z,100791.22
2023-03-24T17:21:50.368Z,100776.38
2023-03-24T17:24:17.685Z,100773.84
2023-03-24T17:26:44.818Z,100775.53
2023-03-24T17:29:13.148Z,100777.94
2023-03-24T17:31:42.947Z,100758.91
2023-03-24T17:36:48.231Z,100754.31
2023-03-24T17:39:17.810Z,100750.63
2023-03-24T17:41:44.908Z,100750.63
2023-03-24T17:44:11.926Z,100752.59
2023-03-24T17:46:38.945Z,100754.03
2023-03-24T17:49:06.477Z,100761.44
2023-03-24T17:51:33.654Z,100764.56
2023-03-24T17:54:00.760Z,100769.41
2023-03-24T17:56:27.781Z,100770.66
2023-03-24T17:58:56.370Z,100770.09
2023-03-24T18:01:23.715Z,100762.25
2023-03-24T18:03:51.018Z,100765.25
2023-03-24T18:06:18.199Z,100767.38
2023-03-24T18:08:46.678Z,100775.78
2023-03-24T18:11:15.149Z,100774.19
2023-03-24T18:13:43.588Z,100772.91
2023-03-24T18:16:20.781Z,100774.03
2023-03-24T18:18:50.298Z,100768.19
2023-03-24T18:21:18.383Z,100768.63
2023-03-24T18:23:46.531Z,100775.41
2023-03-24T18:26:15.840Z,100779.34
2023-03-24T18:28:45.575Z,100774.22
2023-03-24T18:31:21.221Z,100776.63
2023-03-24T18:33:50.422Z,100766.25
2023-03-24T18:36:26.706Z,100773.63
2023-03-24T18:39:07.749Z,100776.84
2023-03-24T18:41:37.337Z,100781.69
2023-03-24T18:44:12.150Z,100779.41
2023-03-24T18:46:40.365Z,100777.94
2023-03-24T18:49:11.156Z,100768.94
2023-03-24T18:51:38.154Z,100784.81
2023-03-24T18:54:06.657Z,100777.97
2023-03-24T18:56:33.768Z,100790.16
2023-03-24T18:59:01.837Z,100783.19
2023-03-24T19:01:30.327Z,100788.72
2023-03-24T19:03:57.573Z,100792.41
2023-03-24T19:06:30.942Z,100786.13
2023-03-24T19:08:59.485Z,100781.88
2023-03-24T19:11:26.925Z,100783.69
2023-03-24T19:13:56.648Z,100786.56
2023-03-24T19:16:23.751Z,100784.84
2023-03-24T19:18:51.147Z,100785.09
2023-03-24T19:21:22.978Z,100786.22
2023-03-24T19:23:52.590Z,100792.47
2023-03-24T19:26:20.719Z,100793.47
2023-03-24T19:28:47.887Z,100788.91
2023-03-24T19:31:18.568Z,100782.66
2023-03-24T19:33:47.348Z,100780.50
2023-03-24T19:36:15.877Z,100805.31
2023-03-24T19:38:43.196Z,100797.31
2023-03-24T19:41:13.665Z,100796.47
2023-03-24T19:43:41.170Z,100803.72
2023-03-24T19:46:08.678Z,100802.72
2023-03-24T19:48:36.369Z,100803.72
2023-03-24T19:51:04.396Z,100810.59
2023-03-24T19:53:31.594Z,100821.66
2023-03-24T19:55:59.836Z,100828.88
2023-03-24T19:58:27.169Z,100827.03
2023-03-24T20:00:54.305Z,100832.31
2023-03-24T20:03:22.717Z,100830.34
2023-03-24T20:05:50.565Z,100833.03
2023-03-24T20:08:19.300Z,100837.72
2023-03-24T20:10:47.270Z,100843.63
2023-03-24T20:13:14.372Z,100846.94
2023-03-24T20:15:41.915Z,100841.53
2023-03-24T20:18:10.684Z,100842.38
2023-03-24T20:20:38.015Z,100846.78
2023-03-24T20:23:05.544Z,100847.03
2023-03-24T20:25:32.525Z,100837.72
2023-03-24T20:27:59.457Z,100840.41
2023-03-24T20:30:28.222Z,100838.44
2023-03-24T20:32:56.943Z,100840.13
2023-03-24T20:35:25.097Z,100839.28
2023-03-24T20:37:52.107Z,100833.88
2023-03-24T20:40:19.644Z,100831.06
2023-03-24T20:42:46.665Z,100834.75
2023-03-24T20:45:13.634Z,100836.31
2023-03-24T20:47:40.739Z,100830.81
2023-03-24T20:50:18.792Z,100824.22
2023-03-24T20:52:46.134Z,100839.44
2023-03-24T20:55:14.679Z,100828.63
2023-03-24T20:57:42.394Z,100841.88
2023-03-24T21:00:13.713Z,100835.38
2023-03-24T21:02:43.125Z,100832.53
2023-03-24T21:05:10.835Z,100833.41
2023-03-24T21:07:38.515Z,100827.13
2023-03-24T21:10:06.741Z,100833.41
2023-03-24T21:12:34.701Z,100838.06
2023-03-24T21:15:02.304Z,100843.31
2023-03-24T21:17:32.722Z,100834.25
2023-03-24T21:20:09.942Z,100828.84
2023-03-24T21:22:55.753Z,100833.41
2023-03-24T21:25:26.983Z,100825.31
2023-03-24T21:27:55.512Z,100816.22
2023-03-24T21:30:24.917Z,100819.78
2023-03-24T21:32:54.961Z,100826.16
2023-03-24T21:35:23.145Z,100813.78
2023-03-24T21:37:53.662Z,100822.72
2023-03-24T21:40:25.150Z,100832.66
2023-03-24T21:42:56.866Z,100824.56
2023-03-24T21:45:24.204Z,100822.84
2023-03-24T21:47:51.428Z,100821.97
2023-03-24T21:50:23.372Z,100816.72
2023-03-24T21:52:53.487Z,100816.84
2023-03-24T21:55:23.042Z,100810.44
2023-03-24T21:57:52.020Z,100816.84
2023-03-24T22:00:24.470Z,100818.84
2023-03-24T22:02:54.301Z,100822.50
2023-03-24T22:05:24.298Z,100821.66
2023-03-24T22:07:52.830Z,100809.25
2023-03-24T22:10:22.923Z,100804.88
2023-03-24T22:12:52.386Z,100802.28
2023-03-24T22:15:21.422Z,100805.13
2023-03-24T22:17:49.547Z,100808.06
2023-03-24T22:20:17.147Z,100803.78
2023-03-24T22:22:44.409Z,100796.81
2023-03-24T22:25:14.420Z,100803.34
2023-03-24T22:27:41.652Z,100797.19
2023-03-24T22:30:12.822Z,100799.16
2023-03-24T22:32:40.044Z,100806.53
2023-03-24T22:35:08.032Z,100804.81
2023-03-24T22:37:35.096Z,100805.94
2023-03-24T22:40:03.650Z,100810.59
2023-03-24T22:42:30.710Z,100812.56
2023-03-24T22:44:58.000Z,100813.53
2023-03-24T22:47:25.124Z,100815.41
2023-03-24T22:49:52.275Z,100810.09
2023-03-24T22:52:19.846Z,100812.94
2023-03-24T22:54:46.815Z,100808.56
2023-03-24T22:57:13.888Z,100805.84
2023-03-24T22:59:41.138Z,100813.09
2023-03-24T23:02:10.320Z,100809.41
2023-03-24T23:04:40.692Z,100812.34
2023-03-24T23:07:08.427Z,100817.84
2023-03-24T23:09:36.710Z,100811.75
2023-03-24T23:12:04.659Z,100806.47
2023-03-24T23:14:31.737Z,100806.47
2023-03-24T23:16:59.530Z,100804.75
2023-03-24T23:19:28.145Z,100800.47
2023-03-24T23:21:55.111Z,100813.25
2023-03-24T23:24:22.276Z,100811.66
2023-03-24T23:26:49.518Z,100806.25
2023-03-24T23:29:17.269Z,100796.47
2023-03-24T23:31:44.429Z,100814.59
2023-03-24T23:34:12.078Z,100807.50
2023-03-24T23:36:49.876Z,100807.63
2023-03-24T23:39:17.330Z,100805.91
2023-03-24T23:41:44.580Z,100814.00
2023-03-24T23:44:11.541Z,100814.00
2023-03-24T23:46:39.931Z,100801.47
2023-03-24T23:49:09.904Z,100809.47
2023-03-24T23:51:37.184Z,100807.75
2023-03-24T23:54:04.401Z,100805.06
2023-03-24T23:56:36.794Z,100797.94
2023-03-24T23:59:06.271Z,100808.84
